sensor_id;sensor_type;location;lat;lon;timestamp;P1;durP1;ratioP1;P2;durP2;ratioP2
23782;SDS011;12071;50.850;4.446;2023-01-28T00:01:56;14.25;;;10.63;;
23782;SDS011;12071;50.850;4.446;2023-01-28T00:04:21;15.57;;;11.45;;
23782;SDS011;12071;50.850;4.446;2023-01-28T00:06:47;15.02;;;10.85;;
23782;SDS011;12071;50.850;4.446;2023-01-28T00:09:13;14.85;;;11.82;;
23782;SDS011;12071;50.850;4.446;2023-01-28T00:11:38;15.23;;;11.43;;
23782;SDS011;12071;50.850;4.446;2023-01-28T00:14:04;15.88;;;11.27;;
23782;SDS011;12071;50.850;4.446;2023-01-28T00:16:29;15.52;;;11.68;;
23782;SDS011;12071;50.850;4.446;2023-01-28T00:18:55;16.63;;;12.60;;
23782;SDS011;12071;50.850;4.446;2023-01-28T00:21:21;15.43;;;12.25;;
23782;SDS011;12071;50.850;4.446;2023-01-28T00:23:48;16.05;;;12.20;;
23782;SDS011;12071;50.850;4.446;2023-01-28T00:26:16;16.60;;;13.20;;
23782;SDS011;12071;50.850;4.446;2023-01-28T00:28:42;15.95;;;12.30;;
23782;SDS011;12071;50.850;4.446;2023-01-28T00:31:15;15.35;;;11.65;;
23782;SDS011;12071;50.850;4.446;2023-01-28T00:33:42;16.27;;;11.93;;
23782;SDS011;12071;50.850;4.446;2023-01-28T00:36:09;16.15;;;12.23;;
23782;SDS011;12071;50.850;4.446;2023-01-28T00:38:35;16.25;;;12.82;;
23782;SDS011;12071;50.850;4.446;2023-01-28T00:41:10;16.17;;;12.18;;
23782;SDS011;12071;50.850;4.446;2023-01-28T00:43:38;18.48;;;13.00;;
23782;SDS011;12071;50.850;4.446;2023-01-28T00:46:04;16.15;;;12.27;;
23782;SDS011;12071;50.850;4.446;2023-01-28T00:48:33;15.52;;;12.35;;
23782;SDS011;12071;50.850;4.446;2023-01-28T00:50:59;15.57;;;11.52;;
23782;SDS011;12071;50.850;4.446;2023-01-28T00:53:25;17.83;;;12.20;;
23782;SDS011;12071;50.850;4.446;2023-01-28T00:55:51;15.32;;;11.32;;
23782;SDS011;12071;50.850;4.446;2023-01-28T00:58:17;16.73;;;12.32;;
23782;SDS011;12071;50.850;4.446;2023-01-28T01:00:43;14.40;;;11.50;;
23782;SDS011;12071;50.850;4.446;2023-01-28T01:03:08;14.88;;;11.40;;
23782;SDS011;12071;50.850;4.446;2023-01-28T01:05:34;15.07;;;11.57;;
23782;SDS011;12071;50.850;4.446;2023-01-28T01:08:00;16.27;;;12.00;;
23782;SDS011;12071;50.850;4.446;2023-01-28T01:10:25;14.98;;;11.68;;
23782;SDS011;12071;50.850;4.446;2023-01-28T01:12:51;14.52;;;11.93;;
23782;SDS011;12071;50.850;4.446;2023-01-28T01:15:17;15.07;;;11.90;;
23782;SDS011;12071;50.850;4.446;2023-01-28T01:17:45;14.40;;;10.98;;
23782;SDS011;12071;50.850;4.446;2023-01-28T01:20:13;14.77;;;10.93;;
23782;SDS011;12071;50.850;4.446;2023-01-28T01:22:41;13.50;;;10.48;;
23782;SDS011;12071;50.850;4.446;2023-01-28T01:25:07;14.65;;;10.95;;
23782;SDS011;12071;50.850;4.446;2023-01-28T01:27:33;15.85;;;10.57;;
23782;SDS011;12071;50.850;4.446;2023-01-28T01:29:58;14.07;;;10.65;;
23782;SDS011;12071;50.850;4.446;2023-01-28T01:32:24;14.23;;;10.35;;
23782;SDS011;12071;50.850;4.446;2023-01-28T01:34:54;14.50;;;10.70;;
23782;SDS011;12071;50.850;4.446;2023-01-28T01:37:19;14.20;;;10.73;;
23782;SDS011;12071;50.850;4.446;2023-01-28T01:39:45;13.90;;;10.18;;
23782;SDS011;12071;50.850;4.446;2023-01-28T01:42:11;13.65;;;10.57;;
23782;SDS011;12071;50.850;4.446;2023-01-28T01:47:23;11.60;;;9.45;;
23782;SDS011;12071;50.850;4.446;2023-01-28T01:52:20;13.80;;;9.23;;
23782;SDS011;12071;50.850;4.446;2023-01-28T01:54:51;15.27;;;10.75;;
23782;SDS011;12071;50.850;4.446;2023-01-28T01:57:26;14.13;;;11.27;;
23782;SDS011;12071;50.850;4.446;2023-01-28T01:59:54;14.95;;;11.75;;
23782;SDS011;12071;50.850;4.446;2023-01-28T02:02:28;15.00;;;11.35;;
23782;SDS011;12071;50.850;4.446;2023-01-28T02:04:54;15.65;;;11.60;;
23782;SDS011;12071;50.850;4.446;2023-01-28T02:07:20;16.42;;;11.43;;
23782;SDS011;12071;50.850;4.446;2023-01-28T02:09:45;14.63;;;11.27;;
23782;SDS011;12071;50.850;4.446;2023-01-28T02:12:12;14.80;;;11.48;;
23782;SDS011;12071;50.850;4.446;2023-01-28T02:14:52;17.38;;;12.43;;
23782;SDS011;12071;50.850;4.446;2023-01-28T02:17:21;16.67;;;11.73;;
23782;SDS011;12071;50.850;4.446;2023-01-28T02:22:21;16.33;;;12.10;;
23782;SDS011;12071;50.850;4.446;2023-01-28T02:33:58;17.65;;;12.32;;
23782;SDS011;12071;50.850;4.446;2023-01-28T02:36:48;17.10;;;11.98;;
23782;SDS011;12071;50.850;4.446;2023-01-28T02:39:21;16.90;;;12.15;;
23782;SDS011;12071;50.850;4.446;2023-01-28T02:41:52;17.70;;;12.20;;
23782;SDS011;12071;50.850;4.446;2023-01-28T02:44:26;17.58;;;13.02;;
23782;SDS011;12071;50.850;4.446;2023-01-28T02:46:52;18.52;;;11.85;;
23782;SDS011;12071;50.850;4.446;2023-01-28T02:49:41;15.80;;;11.80;;
23782;SDS011;12071;50.850;4.446;2023-01-28T03:00:51;18.02;;;11.68;;
23782;SDS011;12071;50.850;4.446;2023-01-28T03:03:21;16.45;;;12.05;;
23782;SDS011;12071;50.850;4.446;2023-01-28T03:06:09;18.95;;;12.50;;
23782;SDS011;12071;50.850;4.446;2023-01-28T03:08:39;18.48;;;11.70;;
23782;SDS011;12071;50.850;4.446;2023-01-28T03:11:28;17.23;;;11.75;;
23782;SDS011;12071;50.850;4.446;2023-01-28T03:14:15;18.08;;;12.15;;
23782;SDS011;12071;50.850;4.446;2023-01-28T03:17:01;17.48;;;12.25;;
23782;SDS011;12071;50.850;4.446;2023-01-28T03:19:48;18.38;;;11.68;;
23782;SDS011;12071;50.850;4.446;2023-01-28T03:22:33;19.10;;;12.07;;
23782;SDS011;12071;50.850;4.446;2023-01-28T03:25:20;17.52;;;10.98;;
23782;SDS011;12071;50.850;4.446;2023-01-28T03:28:09;17.63;;;12.63;;
23782;SDS011;12071;50.850;4.446;2023-01-28T03:30:59;19.40;;;12.32;;
23782;SDS011;12071;50.850;4.446;2023-01-28T03:33:47;17.25;;;11.32;;
23782;SDS011;12071;50.850;4.446;2023-01-28T03:36:34;17.50;;;11.55;;
23782;SDS011;12071;50.850;4.446;2023-01-28T03:39:13;19.52;;;12.30;;
23782;SDS011;12071;50.850;4.446;2023-01-28T03:41:39;17.50;;;11.77;;
23782;SDS011;12071;50.850;4.446;2023-01-28T03:44:05;18.90;;;12.45;;
23782;SDS011;12071;50.850;4.446;2023-01-28T03:46:50;18.77;;;12.27;;
23782;SDS011;12071;50.850;4.446;2023-01-28T03:49:15;18.38;;;12.27;;
23782;SDS011;12071;50.850;4.446;2023-01-28T03:51:41;16.23;;;11.50;;
23782;SDS011;12071;50.850;4.446;2023-01-28T03:54:08;17.20;;;11.32;;
23782;SDS011;12071;50.850;4.446;2023-01-28T03:56:34;17.75;;;11.88;;
23782;SDS011;12071;50.850;4.446;2023-01-28T03:59:02;17.35;;;11.75;;
23782;SDS011;12071;50.850;4.446;2023-01-28T04:01:28;17.00;;;11.85;;
23782;SDS011;12071;50.850;4.446;2023-01-28T04:03:53;17.13;;;11.63;;
23782;SDS011;12071;50.850;4.446;2023-01-28T04:06:19;18.52;;;12.18;;
23782;SDS011;12071;50.850;4.446;2023-01-28T04:08:44;16.58;;;11.50;;
23782;SDS011;12071;50.850;4.446;2023-01-28T04:11:16;17.58;;;12.07;;
23782;SDS011;12071;50.850;4.446;2023-01-28T04:13:46;16.88;;;11.55;;
23782;SDS011;12071;50.850;4.446;2023-01-28T04:16:13;18.27;;;11.93;;
23782;SDS011;12071;50.850;4.446;2023-01-28T04:18:40;16.58;;;11.32;;
23782;SDS011;12071;50.850;4.446;2023-01-28T04:21:07;17.08;;;11.00;;
23782;SDS011;12071;50.850;4.446;2023-01-28T04:23:33;17.67;;;10.73;;
23782;SDS011;12071;50.850;4.446;2023-01-28T04:25:58;16.15;;;11.32;;
23782;SDS011;12071;50.850;4.446;2023-01-28T04:28:24;19.02;;;12.27;;
23782;SDS011;12071;50.850;4.446;2023-01-28T04:30:50;14.52;;;10.55;;
23782;SDS011;12071;50.850;4.446;2023-01-28T04:33:17;17.13;;;10.80;;
23782;SDS011;12071;50.850;4.446;2023-01-28T04:35:42;14.88;;;11.05;;
23782;SDS011;12071;50.850;4.446;2023-01-28T04:38:08;16.73;;;11.85;;
23782;SDS011;12071;50.850;4.446;2023-01-28T04:40:34;15.40;;;10.40;;
23782;SDS011;12071;50.850;4.446;2023-01-28T04:42:59;16.45;;;11.50;;
23782;SDS011;12071;50.850;4.446;2023-01-28T04:45:25;17.15;;;11.70;;
23782;SDS011;12071;50.850;4.446;2023-01-28T04:47:50;16.98;;;11.75;;
23782;SDS011;12071;50.850;4.446;2023-01-28T04:50:16;16.08;;;11.15;;
23782;SDS011;12071;50.850;4.446;2023-01-28T04:52:42;16.80;;;10.80;;
23782;SDS011;12071;50.850;4.446;2023-01-28T04:55:08;15.30;;;10.70;;
23782;SDS011;12071;50.850;4.446;2023-01-28T04:57:34;16.38;;;10.98;;
23782;SDS011;12071;50.850;4.446;2023-01-28T05:00:00;16.95;;;10.95;;
23782;SDS011;12071;50.850;4.446;2023-01-28T05:02:27;16.58;;;10.20;;
23782;SDS011;12071;50.850;4.446;2023-01-28T05:04:52;17.08;;;11.25;;
23782;SDS011;12071;50.850;4.446;2023-01-28T05:07:18;18.83;;;12.40;;
23782;SDS011;12071;50.850;4.446;2023-01-28T05:09:43;17.77;;;11.73;;
23782;SDS011;12071;50.850;4.446;2023-01-28T05:12:09;20.15;;;12.98;;
23782;SDS011;12071;50.850;4.446;2023-01-28T05:14:34;16.55;;;11.55;;
23782;SDS011;12071;50.850;4.446;2023-01-28T05:17:00;18.90;;;12.40;;
23782;SDS011;12071;50.850;4.446;2023-01-28T05:19:25;16.25;;;11.77;;
23782;SDS011;12071;50.850;4.446;2023-01-28T05:21:51;17.00;;;12.10;;
23782;SDS011;12071;50.850;4.446;2023-01-28T05:24:16;18.38;;;12.73;;
23782;SDS011;12071;50.850;4.446;2023-01-28T05:26:42;21.48;;;12.80;;
23782;SDS011;12071;50.850;4.446;2023-01-28T05:29:07;18.55;;;12.35;;
23782;SDS011;12071;50.850;4.446;2023-01-28T05:31:33;18.27;;;12.65;;
23782;SDS011;12071;50.850;4.446;2023-01-28T05:33:59;19.05;;;12.55;;
23782;SDS011;12071;50.850;4.446;2023-01-28T05:36:24;18.63;;;12.35;;
23782;SDS011;12071;50.850;4.446;2023-01-28T05:38:50;17.58;;;12.05;;
23782;SDS011;12071;50.850;4.446;2023-01-28T05:41:16;18.13;;;12.98;;
23782;SDS011;12071;50.850;4.446;2023-01-28T05:43:41;18.25;;;12.95;;
23782;SDS011;12071;50.850;4.446;2023-01-28T05:46:07;18.02;;;12.13;;
23782;SDS011;12071;50.850;4.446;2023-01-28T05:48:33;17.38;;;11.68;;
23782;SDS011;12071;50.850;4.446;2023-01-28T05:50:58;16.30;;;11.40;;
23782;SDS011;12071;50.850;4.446;2023-01-28T05:53:24;18.25;;;12.32;;
23782;SDS011;12071;50.850;4.446;2023-01-28T05:55:50;17.35;;;11.93;;
23782;SDS011;12071;50.850;4.446;2023-01-28T05:58:17;16.27;;;11.40;;
23782;SDS011;12071;50.850;4.446;2023-01-28T06:00:44;16.35;;;11.80;;
23782;SDS011;12071;50.850;4.446;2023-01-28T06:03:09;17.08;;;11.45;;
23782;SDS011;12071;50.850;4.446;2023-01-28T06:05:35;17.00;;;11.77;;
23782;SDS011;12071;50.850;4.446;2023-01-28T06:08:01;19.42;;;12.43;;
23782;SDS011;12071;50.850;4.446;2023-01-28T06:10:26;18.67;;;12.80;;
23782;SDS011;12071;50.850;4.446;2023-01-28T06:12:52;16.35;;;11.38;;
23782;SDS011;12071;50.850;4.446;2023-01-28T06:15:17;17.92;;;12.13;;
23782;SDS011;12071;50.850;4.446;2023-01-28T06:17:43;19.08;;;12.88;;
23782;SDS011;12071;50.850;4.446;2023-01-28T06:20:09;16.65;;;11.82;;
23782;SDS011;12071;50.850;4.446;2023-01-28T06:22:35;18.60;;;12.60;;
23782;SDS011;12071;50.850;4.446;2023-01-28T06:25:00;18.70;;;12.13;;
23782;SDS011;12071;50.850;4.446;2023-01-28T06:27:26;17.70;;;12.27;;
23782;SDS011;12071;50.850;4.446;2023-01-28T06:29:52;18.42;;;12.60;;
23782;SDS011;12071;50.850;4.446;2023-01-28T06:32:18;19.05;;;13.48;;
23782;SDS011;12071;50.850;4.446;2023-01-28T06:34:44;17.08;;;12.38;;
23782;SDS011;12071;50.850;4.446;2023-01-28T06:37:13;18.75;;;12.32;;
23782;SDS011;12071;50.850;4.446;2023-01-28T06:39:38;18.73;;;12.93;;
23782;SDS011;12071;50.850;4.446;2023-01-28T06:42:04;16.40;;;11.80;;
23782;SDS011;12071;50.850;4.446;2023-01-28T06:44:30;17.10;;;12.30;;
23782;SDS011;12071;50.850;4.446;2023-01-28T06:46:55;18.02;;;12.40;;
23782;SDS011;12071;50.850;4.446;2023-01-28T06:49:21;17.88;;;12.07;;
23782;SDS011;12071;50.850;4.446;2023-01-28T06:51:47;16.58;;;11.68;;
23782;SDS011;12071;50.850;4.446;2023-01-28T06:54:12;17.20;;;12.25;;
23782;SDS011;12071;50.850;4.446;2023-01-28T06:56:38;17.52;;;11.13;;
23782;SDS011;12071;50.850;4.446;2023-01-28T06:59:04;20.55;;;12.95;;
23782;SDS011;12071;50.850;4.446;2023-01-28T07:01:30;17.52;;;12.15;;
23782;SDS011;12071;50.850;4.446;2023-01-28T07:03:55;15.02;;;10.50;;
23782;SDS011;12071;50.850;4.446;2023-01-28T07:06:21;16.92;;;11.15;;
23782;SDS011;12071;50.850;4.446;2023-01-28T07:08:47;15.35;;;10.70;;
23782;SDS011;12071;50.850;4.446;2023-01-28T07:11:13;16.05;;;10.95;;
23782;SDS011;12071;50.850;4.446;2023-01-28T07:13:39;15.32;;;10.77;;
23782;SDS011;12071;50.850;4.446;2023-01-28T07:16:05;13.00;;;10.40;;
23782;SDS011;12071;50.850;4.446;2023-01-28T07:18:31;15.75;;;11.18;;
23782;SDS011;12071;50.850;4.446;2023-01-28T07:20:57;15.77;;;11.45;;
23782;SDS011;12071;50.850;4.446;2023-01-28T07:23:23;16.17;;;10.80;;
23782;SDS011;12071;50.850;4.446;2023-01-28T07:25:49;16.05;;;11.18;;
23782;SDS011;12071;50.850;4.446;2023-01-28T07:28:14;15.02;;;10.65;;
23782;SDS011;12071;50.850;4.446;2023-01-28T07:30:45;15.35;;;11.15;;
23782;SDS011;12071;50.850;4.446;2023-01-28T07:33:12;17.63;;;11.73;;
23782;SDS011;12071;50.850;4.446;2023-01-28T07:35:38;16.73;;;10.80;;
23782;SDS011;12071;50.850;4.446;2023-01-28T07:38:03;15.80;;;11.23;;
23782;SDS011;12071;50.850;4.446;2023-01-28T07:40:29;16.73;;;11.02;;
23782;SDS011;12071;50.850;4.446;2023-01-28T07:42:55;14.02;;;10.52;;
23782;SDS011;12071;50.850;4.446;2023-01-28T07:45:21;17.90;;;11.65;;
23782;SDS011;12071;50.850;4.446;2023-01-28T07:47:57;15.15;;;10.80;;
23782;SDS011;12071;50.850;4.446;2023-01-28T07:50:28;16.45;;;11.02;;
23782;SDS011;12071;50.850;4.446;2023-01-28T07:52:55;18.42;;;12.27;;
23782;SDS011;12071;50.850;4.446;2023-01-28T07:55:22;17.00;;;11.35;;
23782;SDS011;12071;50.850;4.446;2023-01-28T07:57:51;19.52;;;12.60;;
23782;SDS011;12071;50.850;4.446;2023-01-28T08:00:18;18.13;;;12.15;;
23782;SDS011;12071;50.850;4.446;2023-01-28T08:02:45;21.65;;;13.18;;
23782;SDS011;12071;50.850;4.446;2023-01-28T08:05:17;18.23;;;12.63;;
23782;SDS011;12071;50.850;4.446;2023-01-28T08:07:44;20.42;;;12.18;;
23782;SDS011;12071;50.850;4.446;2023-01-28T08:10:12;15.98;;;11.98;;
23782;SDS011;12071;50.850;4.446;2023-01-28T08:12:39;16.50;;;11.73;;
23782;SDS011;12071;50.850;4.446;2023-01-28T08:15:05;16.17;;;11.60;;
23782;SDS011;12071;50.850;4.446;2023-01-28T08:17:31;16.63;;;12.35;;
23782;SDS011;12071;50.850;4.446;2023-01-28T08:19:57;18.50;;;13.15;;
23782;SDS011;12071;50.850;4.446;2023-01-28T08:22:26;16.20;;;11.63;;
23782;SDS011;12071;50.850;4.446;2023-01-28T08:24:53;18.02;;;12.25;;
23782;SDS011;12071;50.850;4.446;2023-01-28T08:27:18;16.45;;;11.27;;
23782;SDS011;12071;50.850;4.446;2023-01-28T08:29:44;16.15;;;11.30;;
23782;SDS011;12071;50.850;4.446;2023-01-28T08:32:09;16.65;;;11.30;;
23782;SDS011;12071;50.850;4.446;2023-01-28T08:34:35;18.35;;;12.57;;
23782;SDS011;12071;50.850;4.446;2023-01-28T08:37:01;16.90;;;12.00;;
23782;SDS011;12071;50.850;4.446;2023-01-28T08:39:26;17.45;;;12.07;;
23782;SDS011;12071;50.850;4.446;2023-01-28T08:41:52;16.70;;;12.02;;
23782;SDS011;12071;50.850;4.446;2023-01-28T08:44:17;18.25;;;12.43;;
23782;SDS011;12071;50.850;4.446;2023-01-28T08:46:43;17.50;;;12.55;;
23782;SDS011;12071;50.850;4.446;2023-01-28T08:49:08;18.15;;;12.43;;
23782;SDS011;12071;50.850;4.446;2023-01-28T08:51:34;20.55;;;13.48;;
23782;SDS011;12071;50.850;4.446;2023-01-28T08:54:00;20.23;;;12.65;;
23782;SDS011;12071;50.850;4.446;2023-01-28T08:56:26;19.05;;;12.90;;
23782;SDS011;12071;50.850;4.446;2023-01-28T08:58:52;18.15;;;12.93;;
23782;SDS011;12071;50.850;4.446;2023-01-28T09:01:17;18.05;;;12.05;;
23782;SDS011;12071;50.850;4.446;2023-01-28T09:03:43;18.30;;;12.73;;
23782;SDS011;12071;50.850;4.446;2023-01-28T09:06:08;19.58;;;12.55;;
23782;SDS011;12071;50.850;4.446;2023-01-28T09:08:34;21.67;;;13.38;;
23782;SDS011;12071;50.850;4.446;2023-01-28T09:10:59;18.08;;;12.63;;
23782;SDS011;12071;50.850;4.446;2023-01-28T09:13:25;20.80;;;13.73;;
23782;SDS011;12071;50.850;4.446;2023-01-28T09:15:51;18.88;;;12.38;;
23782;SDS011;12071;50.850;4.446;2023-01-28T09:18:17;22.05;;;14.00;;
23782;SDS011;12071;50.850;4.446;2023-01-28T09:20:43;17.30;;;12.27;;
23782;SDS011;12071;50.850;4.446;2023-01-28T09:23:09;20.48;;;13.48;;
23782;SDS011;12071;50.850;4.446;2023-01-28T09:25:37;21.17;;;14.25;;
23782;SDS011;12071;50.850;4.446;2023-01-28T09:28:02;20.02;;;13.45;;
23782;SDS011;12071;50.850;4.446;2023-01-28T09:30:28;19.77;;;12.60;;
23782;SDS011;12071;50.850;4.446;2023-01-28T09:32:54;20.02;;;12.88;;
23782;SDS011;12071;50.850;4.446;2023-01-28T09:35:22;18.40;;;13.13;;
23782;SDS011;12071;50.850;4.446;2023-01-28T09:37:48;18.15;;;12.80;;
23782;SDS011;12071;50.850;4.446;2023-01-28T09:40:16;21.45;;;13.68;;
23782;SDS011;12071;50.850;4.446;2023-01-28T09:43:04;19.52;;;13.90;;
23782;SDS011;12071;50.850;4.446;2023-01-28T09:45:52;19.02;;;13.05;;
23782;SDS011;12071;50.850;4.446;2023-01-28T09:48:22;19.95;;;13.52;;
23782;SDS011;12071;50.850;4.446;2023-01-28T09:50:54;19.90;;;13.68;;
23782;SDS011;12071;50.850;4.446;2023-01-28T09:53:30;18.35;;;12.70;;
23782;SDS011;12071;50.850;4.446;2023-01-28T09:56:06;19.30;;;13.75;;
23782;SDS011;12071;50.850;4.446;2023-01-28T09:58:40;19.55;;;12.90;;
23782;SDS011;12071;50.850;4.446;2023-01-28T10:01:33;19.80;;;13.52;;
23782;SDS011;12071;50.850;4.446;2023-01-28T10:09:32;20.58;;;13.07;;
23782;SDS011;12071;50.850;4.446;2023-01-28T10:18:01;22.38;;;14.07;;
23782;SDS011;12071;50.850;4.446;2023-01-28T10:20:34;20.98;;;13.65;;
23782;SDS011;12071;50.850;4.446;2023-01-28T10:25:49;21.33;;;13.40;;
23782;SDS011;12071;50.850;4.446;2023-01-28T10:30:51;21.40;;;14.07;;
23782;SDS011;12071;50.850;4.446;2023-01-28T10:33:36;21.40;;;14.30;;
23782;SDS011;12071;50.850;4.446;2023-01-28T10:36:03;18.77;;;12.93;;
23782;SDS011;12071;50.850;4.446;2023-01-28T10:38:30;19.80;;;12.90;;
23782;SDS011;12071;50.850;4.446;2023-01-28T10:40:57;17.73;;;12.32;;
23782;SDS011;12071;50.850;4.446;2023-01-28T10:43:29;18.20;;;12.35;;
23782;SDS011;12071;50.850;4.446;2023-01-28T10:46:08;19.95;;;12.57;;
23782;SDS011;12071;50.850;4.446;2023-01-28T10:51:35;18.85;;;12.82;;
23782;SDS011;12071;50.850;4.446;2023-01-28T10:54:03;16.63;;;11.60;;
23782;SDS011;12071;50.850;4.446;2023-01-28T10:56:56;17.45;;;11.27;;
23782;SDS011;12071;50.850;4.446;2023-01-28T10:59:28;17.00;;;11.75;;
23782;SDS011;12071;50.850;4.446;2023-01-28T11:02:01;17.77;;;11.63;;
23782;SDS011;12071;50.850;4.446;2023-01-28T11:04:30;17.27;;;11.38;;
23782;SDS011;12071;50.850;4.446;2023-01-28T11:09:33;17.67;;;11.80;;
23782;SDS011;12071;50.850;4.446;2023-01-28T11:14:36;16.75;;;11.38;;
23782;SDS011;12071;50.850;4.446;2023-01-28T11:17:01;17.05;;;11.52;;
23782;SDS011;12071;50.850;4.446;2023-01-28T11:19:33;23.85;;;12.65;;
23782;SDS011;12071;50.850;4.446;2023-01-28T11:22:00;16.80;;;10.88;;
23782;SDS011;12071;50.850;4.446;2023-01-28T11:24:27;15.57;;;10.40;;
23782;SDS011;12071;50.850;4.446;2023-01-28T11:26:56;17.35;;;11.38;;
23782;SDS011;12071;50.850;4.446;2023-01-28T11:29:29;16.17;;;11.35;;
23782;SDS011;12071;50.850;4.446;2023-01-28T11:31:57;16.45;;;10.80;;
23782;SDS011;12071;50.850;4.446;2023-01-28T11:34:25;19.35;;;12.00;;
23782;SDS011;12071;50.850;4.446;2023-01-28T11:36:53;17.45;;;11.65;;
23782;SDS011;12071;50.850;4.446;2023-01-28T11:39:26;16.33;;;11.55;;
23782;SDS011;12071;50.850;4.446;2023-01-28T11:41:53;17.77;;;11.38;;
23782;SDS011;12071;50.850;4.446;2023-01-28T11:44:26;16.92;;;11.43;;
23782;SDS011;12071;50.850;4.446;2023-01-28T11:50:01;16.25;;;10.70;;
23782;SDS011;12071;50.850;4.446;2023-01-28T11:57:22;16.80;;;11.45;;
23782;SDS011;12071;50.850;4.446;2023-01-28T12:02:58;17.65;;;12.15;;
23782;SDS011;12071;50.850;4.446;2023-01-28T12:05:52;18.02;;;11.82;;
23782;SDS011;12071;50.850;4.446;2023-01-28T12:08:22;20.75;;;11.32;;
23782;SDS011;12071;50.850;4.446;2023-01-28T12:14:17;16.52;;;11.48;;
23782;SDS011;12071;50.850;4.446;2023-01-28T12:19:46;17.98;;;11.35;;
23782;SDS011;12071;50.850;4.446;2023-01-28T12:22:41;21.52;;;12.02;;
23782;SDS011;12071;50.850;4.446;2023-01-28T12:25:20;18.60;;;12.82;;
23782;SDS011;12071;50.850;4.446;2023-01-28T12:28:07;18.08;;;12.70;;
23782;SDS011;12071;50.850;4.446;2023-01-28T12:36:40;20.08;;;13.15;;
23782;SDS011;12071;50.850;4.446;2023-01-28T12:39:30;17.95;;;11.85;;
23782;SDS011;12071;50.850;4.446;2023-01-28T12:45:12;17.80;;;12.38;;
23782;SDS011;12071;50.850;4.446;2023-01-28T12:47:50;18.63;;;13.50;;
23782;SDS011;12071;50.850;4.446;2023-01-28T12:50:24;19.65;;;13.52;;
23782;SDS011;12071;50.850;4.446;2023-01-28T12:52:57;17.95;;;13.15;;
23782;SDS011;12071;50.850;4.446;2023-01-28T12:55:43;19.83;;;13.35;;
23782;SDS011;12071;50.850;4.446;2023-01-28T12:58:16;19.38;;;13.07;;
23782;SDS011;12071;50.850;4.446;2023-01-28T13:00:53;18.17;;;12.70;;
23782;SDS011;12071;50.850;4.446;2023-01-28T13:05:55;18.50;;;13.63;;
23782;SDS011;12071;50.850;4.446;2023-01-28T13:08:26;19.10;;;14.05;;
23782;SDS011;12071;50.850;4.446;2023-01-28T13:10:53;19.75;;;14.45;;
23782;SDS011;12071;50.850;4.446;2023-01-28T13:13:35;20.92;;;14.77;;
23782;SDS011;12071;50.850;4.446;2023-01-28T13:16:08;20.15;;;13.80;;
23782;SDS011;12071;50.850;4.446;2023-01-28T13:23:44;19.75;;;14.05;;
23782;SDS011;12071;50.850;4.446;2023-01-28T13:31:09;18.15;;;13.02;;
23782;SDS011;12071;50.850;4.446;2023-01-28T13:33:46;18.42;;;13.73;;
23782;SDS011;12071;50.850;4.446;2023-01-28T13:36:28;19.38;;;14.23;;
23782;SDS011;12071;50.850;4.446;2023-01-28T13:39:01;19.27;;;14.57;;
23782;SDS011;12071;50.850;4.446;2023-01-28T13:44:40;22.63;;;13.73;;
23782;SDS011;12071;50.850;4.446;2023-01-28T13:49:32;20.52;;;14.52;;
23782;SDS011;12071;50.850;4.446;2023-01-28T14:03:15;22.73;;;14.82;;
23782;SDS011;12071;50.850;4.446;2023-01-28T14:20:15;19.95;;;13.55;;
23782;SDS011;12071;50.850;4.446;2023-01-28T14:22:44;21.83;;;14.63;;
23782;SDS011;12071;50.850;4.446;2023-01-28T14:25:11;19.83;;;12.60;;
23782;SDS011;12071;50.850;4.446;2023-01-28T14:27:43;18.65;;;13.45;;
23782;SDS011;12071;50.850;4.446;2023-01-28T14:32:51;20.52;;;13.27;;
23782;SDS011;12071;50.850;4.446;2023-01-28T14:35:25;20.45;;;13.05;;
23782;SDS011;12071;50.850;4.446;2023-01-28T14:37:56;19.17;;;13.48;;
23782;SDS011;12071;50.850;4.446;2023-01-28T14:40:27;18.60;;;12.45;;
23782;SDS011;12071;50.850;4.446;2023-01-28T14:42:54;19.85;;;13.65;;
23782;SDS011;12071;50.850;4.446;2023-01-28T14:48:24;19.77;;;13.82;;
23782;SDS011;12071;50.850;4.446;2023-01-28T14:59:06;21.38;;;13.18;;
23782;SDS011;12071;50.850;4.446;2023-01-28T15:01:41;17.73;;;11.98;;
23782;SDS011;12071;50.850;4.446;2023-01-28T15:04:26;16.00;;;12.43;;
23782;SDS011;12071;50.850;4.446;2023-01-28T15:06:53;16.42;;;12.07;;
23782;SDS011;12071;50.850;4.446;2023-01-28T15:09:19;18.30;;;11.80;;
23782;SDS011;12071;50.850;4.446;2023-01-28T15:11:46;18.30;;;12.60;;
23782;SDS011;12071;50.850;4.446;2023-01-28T15:14:17;17.30;;;12.38;;
23782;SDS011;12071;50.850;4.446;2023-01-28T15:16:53;17.52;;;12.60;;
23782;SDS011;12071;50.850;4.446;2023-01-28T15:19:23;17.58;;;11.80;;
23782;SDS011;12071;50.850;4.446;2023-01-28T15:21:58;16.23;;;11.40;;
23782;SDS011;12071;50.850;4.446;2023-01-28T15:24:26;17.13;;;11.70;;
23782;SDS011;12071;50.850;4.446;2023-01-28T15:26:52;18.17;;;12.68;;
23782;SDS011;12071;50.850;4.446;2023-01-28T15:34:19;17.75;;;12.50;;
23782;SDS011;12071;50.850;4.446;2023-01-28T15:36:46;20.92;;;12.48;;
23782;SDS011;12071;50.850;4.446;2023-01-28T15:39:17;17.17;;;12.15;;
23782;SDS011;12071;50.850;4.446;2023-01-28T15:41:46;19.75;;;12.60;;
23782;SDS011;12071;50.850;4.446;2023-01-28T15:44:24;17.88;;;12.02;;
23782;SDS011;12071;50.850;4.446;2023-01-28T15:47:02;17.33;;;11.68;;
23782;SDS011;12071;50.850;4.446;2023-01-28T15:49:40;16.92;;;11.57;;
23782;SDS011;12071;50.850;4.446;2023-01-28T15:52:09;17.35;;;11.98;;
23782;SDS011;12071;50.850;4.446;2023-01-28T15:54:39;17.67;;;11.82;;
23782;SDS011;12071;50.850;4.446;2023-01-28T15:57:16;19.60;;;12.73;;
23782;SDS011;12071;50.850;4.446;2023-01-28T15:59:48;16.93;;;11.93;;
23782;SDS011;12071;50.850;4.446;2023-01-28T16:02:18;17.83;;;12.32;;
23782;SDS011;12071;50.850;4.446;2023-01-28T16:04:59;17.92;;;11.90;;
23782;SDS011;12071;50.850;4.446;2023-01-28T16:07:28;17.30;;;11.82;;
23782;SDS011;12071;50.850;4.446;2023-01-28T16:09:56;16.40;;;11.40;;
23782;SDS011;12071;50.850;4.446;2023-01-28T16:12:24;17.40;;;12.18;;
23782;SDS011;12071;50.850;4.446;2023-01-28T16:14:54;17.85;;;11.90;;
23782;SDS011;12071;50.850;4.446;2023-01-28T16:17:22;22.42;;;12.63;;
23782;SDS011;12071;50.850;4.446;2023-01-28T16:19:55;18.60;;;12.40;;
23782;SDS011;12071;50.850;4.446;2023-01-28T16:24:55;19.58;;;13.05;;
23782;SDS011;12071;50.850;4.446;2023-01-28T16:27:21;17.92;;;11.75;;
23782;SDS011;12071;50.850;4.446;2023-01-28T16:29:48;20.17;;;13.35;;
23782;SDS011;12071;50.850;4.446;2023-01-28T16:32:28;22.58;;;13.05;;
23782;SDS011;12071;50.850;4.446;2023-01-28T16:34:56;19.13;;;12.05;;
23782;SDS011;12071;50.850;4.446;2023-01-28T16:37:22;19.27;;;12.52;;
23782;SDS011;12071;50.850;4.446;2023-01-28T16:39:47;20.10;;;12.40;;
23782;SDS011;12071;50.850;4.446;2023-01-28T16:42:13;19.30;;;12.55;;
23782;SDS011;12071;50.850;4.446;2023-01-28T16:44:39;20.35;;;12.70;;
23782;SDS011;12071;50.850;4.446;2023-01-28T16:47:04;20.92;;;13.00;;
23782;SDS011;12071;50.850;4.446;2023-01-28T16:49:30;20.25;;;13.30;;
23782;SDS011;12071;50.850;4.446;2023-01-28T16:51:56;20.48;;;13.32;;
23782;SDS011;12071;50.850;4.446;2023-01-28T16:54:22;19.75;;;13.25;;
23782;SDS011;12071;50.850;4.446;2023-01-28T16:56:47;22.98;;;13.57;;